Time;durP1;ratioP1;P1;durP2;ratioP2;P2;SDS_P1;SDS_P2;PMS_P1;PMS_P2;Temp;Humidity;BMP_temperature;BMP_pressure;BME280_temperature;BME280_humidity;BME280_pressure;Samples;Min_cycle;Max_cycle;Signal;HPM_P1;HPM_P2
2023/07/28 00:00:00;;;;;;;286.30;156.80;;;;;;;13.39;100.00;99744.75;5055408;28;20032;-82
2023/07/28 00:02:26;;;;;;;283.60;157.20;;;;;;;13.34;100.00;99743.75;5039985;28;20086;-85
2023/07/28 00:04:51;;;;;;;279.02;155.85;;;;;;;13.35;100.00;99737.28;5050332;28;20391;-82
2023/07/28 00:07:17;;;;;;;281.02;155.05;;;;;;;13.39;100.00;99735.81;5058260;28;21831;-83
2023/07/28 00:09:43;;;;;;;281.95;157.50;;;;;;;13.38;100.00;99740.38;5041316;28;20036;-84
2023/07/28 00:12:09;;;;;;;274.83;154.90;;;;;;;13.16;100.00;99704.78;5055238;28;20480;-84
2023/07/28 00:14:34;;;;;;;274.83;154.55;;;;;;;13.42;100.00;99735.38;5057112;28;20372;-82
2023/07/28 00:17:00;;;;;;;275.45;155.02;;;;;;;13.44;100.00;99738.66;5038001;28;20033;-82
2023/07/28 00:19:26;;;;;;;272.48;153.15;;;;;;;13.46;100.00;99733.06;5074900;28;20078;-82
2023/07/28 00:21:52;;;;;;;279.63;155.32;;;;;;;13.41;100.00;99731.00;5056404;28;20093;-82
2023/07/28 00:24:18;;;;;;;274.27;154.10;;;;;;;13.35;100.00;99730.00;5054681;28;20040;-83
2023/07/28 00:26:44;;;;;;;273.45;153.10;;;;;;;13.40;100.00;99732.88;5068047;28;20127;-82
2023/07/28 00:29:10;;;;;;;274.67;153.75;;;;;;;13.36;100.00;99730.84;5076246;28;20032;-84
2023/07/28 00:31:35;;;;;;;276.27;154.35;;;;;;;13.41;100.00;99733.69;5075112;28;20456;-84
2023/07/28 00:34:02;;;;;;;281.92;156.18;;;;;;;13.37;100.00;99727.94;5074087;28;20110;-84
2023/07/28 00:36:28;;;;;;;278.10;156.60;;;;;;;13.31;100.00;99722.56;5074378;28;20047;-84
2023/07/28 00:38:53;;;;;;;283.27;156.52;;;;;;;13.26;100.00;99735.84;5058136;28;20036;-83
2023/07/28 00:41:20;;;;;;;280.00;155.95;;;;;;;13.29;100.00;99747.09;5057106;28;20036;-82
2023/07/28 00:43:46;;;;;;;279.30;155.82;;;;;;;13.27;100.00;99732.97;5037657;28;20040;-83
2023/07/28 00:46:12;;;;;;;282.35;157.38;;;;;;;13.18;100.00;99718.91;5071186;28;20069;-85
2023/07/28 00:48:42;;;;;;;275.45;155.50;;;;;;;12.89;100.00;99687.13;5057246;28;20028;-82
2023/07/28 00:51:08;;;;;;;279.98;156.00;;;;;;;13.08;100.00;99723.13;5053734;28;20040;-82
2023/07/28 00:53:34;;;;;;;281.40;156.95;;;;;;;12.95;100.00;99702.44;5068072;28;20140;-82
2023/07/28 00:56:01;;;;;;;278.20;155.60;;;;;;;12.94;100.00;99706.19;5058083;28;20029;-82
2023/07/28 00:58:29;;;;;;;277.98;156.23;;;;;;;12.96;100.00;99696.00;5073724;28;20097;-82
2023/07/28 01:00:57;;;;;;;280.10;156.48;;;;;;;12.93;100.00;99682.94;5040654;28;20471;-82
2023/07/28 01:03:23;;;;;;;278.25;155.63;;;;;;;13.01;100.00;99700.75;5073664;28;20036;-82
2023/07/28 01:06:16;;;;;;;279.40;156.00;;;;;;;13.00;100.00;99697.22;5054016;28;20053;-81
2023/07/28 01:09:05;;;;;;;278.75;156.88;;;;;;;12.87;100.00;99690.03;5073423;28;20499;-82
2023/07/28 01:11:34;;;;;;;284.40;159.60;;;;;;;12.91;100.00;99672.38;5072508;28;20097;-82
2023/07/28 01:13:59;;;;;;;278.13;155.73;;;;;;;13.10;100.00;99686.78;5038254;28;20552;-82
2023/07/28 01:16:25;;;;;;;279.38;156.60;;;;;;;13.12;100.00;99681.16;5070990;28;20039;-82
2023/07/28 01:18:51;;;;;;;276.00;155.80;;;;;;;13.15;100.00;99692.34;5055622;28;20379;-82
2023/07/28 01:21:26;;;;;;;276.27;154.75;;;;;;;13.12;100.00;99698.16;5072638;28;20074;-82
2023/07/28 01:24:05;;;;;;;279.50;157.05;;;;;;;13.11;100.00;99685.72;5053219;28;20041;-82
2023/07/28 01:26:31;;;;;;;280.88;155.85;;;;;;;13.18;100.00;99689.22;5038507;28;20037;-82
2023/07/28 01:28:57;;;;;;;278.70;155.50;;;;;;;13.22;100.00;99697.69;5057383;28;20390;-83
2023/07/28 01:31:23;;;;;;;279.45;155.90;;;;;;;13.22;100.00;99696.88;5073213;28;20483;-83
2023/07/28 01:33:48;;;;;;;276.20;154.18;;;;;;;13.19;100.00;99687.31;5057113;28;20071;-83
2023/07/28 01:36:14;;;;;;;272.42;154.05;;;;;;;13.22;100.00;99688.75;5073896;28;20085;-83
2023/07/28 01:38:40;;;;;;;269.20;152.75;;;;;;;13.21;100.00;99685.25;5074174;28;20032;-82
2023/07/28 01:41:05;;;;;;;275.67;153.77;;;;;;;13.16;100.00;99677.78;5073857;28;20040;-82
2023/07/28 01:43:31;;;;;;;273.27;153.68;;;;;;;13.15;100.00;99673.47;5074944;28;20028;-81
2023/07/28 01:45:56;;;;;;;277.50;155.82;;;;;;;13.08;100.00;99671.84;5074642;28;20471;-82
2023/07/28 01:48:22;;;;;;;272.42;153.65;;;;;;;13.07;100.00;99675.56;5073042;28;20025;-82
2023/07/28 01:50:48;;;;;;;275.23;155.77;;;;;;;12.97;100.00;99663.41;5055989;28;20502;-82
2023/07/28 01:53:13;;;;;;;273.75;153.10;;;;;;;12.98;100.00;99672.31;5054439;28;20506;-84
2023/07/28 01:55:39;;;;;;;274.25;154.38;;;;;;;12.89;100.00;99662.84;5052844;28;20095;-82
2023/07/28 01:58:04;;;;;;;273.67;154.55;;;;;;;12.82;100.00;99659.34;5044627;28;20032;-83
2023/07/28 02:00:30;;;;;;;279.48;155.73;;;;;;;12.89;100.00;99676.34;5051318;28;20050;-84
2023/07/28 02:03:01;;;;;;;274.02;154.90;;;;;;;12.85;100.00;99667.84;5054438;28;20044;-83
2023/07/28 02:05:27;;;;;;;278.27;155.93;;;;;;;12.79;100.00;99676.81;5071359;28;20131;-82
2023/07/28 02:07:56;;;;;;;274.27;154.98;;;;;;;12.75;100.00;99667.47;5054221;28;20135;-82
2023/07/28 02:10:23;;;;;;;280.33;156.27;;;;;;;12.73;100.00;99673.09;5052612;28;20123;-83
2023/07/28 02:12:50;;;;;;;275.63;156.20;;;;;;;12.69;100.00;99669.19;5039054;28;20368;-82
2023/07/28 02:15:18;;;;;;;282.73;157.15;;;;;;;12.70;100.00;99661.91;5039418;28;20094;-82
2023/07/28 02:17:44;;;;;;;272.98;152.82;;;;;;;12.73;100.00;99667.72;5037929;28;20049;-82
2023/07/28 02:20:15;;;;;;;278.30;155.60;;;;;;;12.74;100.00;99663.97;5071366;28;20033;-81
2023/07/28 02:22:43;;;;;;;275.17;155.57;;;;;;;12.79;100.00;99666.00;5057435;28;20109;-82
2023/07/28 02:25:12;;;;;;;273.85;155.75;;;;;;;12.74;100.00;99655.88;5070364;28;20440;-82
2023/07/28 02:27:38;;;;;;;271.17;155.07;;;;;;;12.71;100.00;99636.59;5071339;28;20040;-82
2023/07/28 02:30:05;;;;;;;277.80;158.45;;;;;;;12.83;100.00;99653.72;5037696;28;20044;-84
2023/07/28 02:32:31;;;;;;;273.67;155.15;;;;;;;12.87;100.00;99649.56;5053677;28;20055;-82
2023/07/28 02:34:57;;;;;;;269.58;154.98;;;;;;;12.73;100.00;99618.34;5049519;28;20037;-82
2023/07/28 02:37:24;;;;;;;270.63;154.05;;;;;;;12.93;100.00;99640.59;5067661;28;20056;-83
2023/07/28 02:39:50;;;;;;;271.05;154.65;;;;;;;12.98;100.00;99637.25;5068929;28;20029;-83
2023/07/28 02:42:15;;;;;;;266.63;153.68;;;;;;;12.95;100.00;99630.41;5037168;28;20059;-82
2023/07/28 02:44:41;;;;;;;279.50;159.15;;;;;;;13.06;100.00;99636.16;5037547;28;20036;-81
2023/07/28 02:47:07;;;;;;;275.17;154.25;;;;;;;13.03;100.00;99634.72;5037058;28;20044;-81
2023/07/28 02:49:35;;;;;;;269.08;154.02;;;;;;;13.05;100.00;99635.34;5069382;28;20051;-81
2023/07/28 02:52:02;;;;;;;271.23;155.27;;;;;;;12.98;100.00;99621.88;5035623;28;20085;-81
2023/07/28 02:54:28;;;;;;;277.40;155.18;;;;;;;12.96;100.00;99615.03;5037187;28;20032;-82
2023/07/28 02:56:54;;;;;;;268.73;153.77;;;;;;;12.91;100.00;99614.88;5072383;28;20051;-82
2023/07/28 02:59:20;;;;;;;266.52;152.82;;;;;;;12.88;100.00;99610.75;5053517;28;20054;-83
2023/07/28 03:01:46;;;;;;;270.30;154.05;;;;;;;12.81;100.00;99595.66;5049675;28;20127;-83
2023/07/28 03:04:11;;;;;;;265.88;153.18;;;;;;;12.76;100.00;99586.34;5054272;28;20024;-82
2023/07/28 03:06:37;;;;;;;266.17;152.93;;;;;;;12.90;100.00;99591.66;5070506;28;20386;-83
2023/07/28 03:09:03;;;;;;;266.27;153.15;;;;;;;13.07;100.00;99608.97;5069589;28;20116;-83
2023/07/28 03:11:29;;;;;;;266.35;153.15;;;;;;;13.01;100.00;99582.84;5070555;28;20029;-83
2023/07/28 03:13:54;;;;;;;266.90;152.70;;;;;;;13.23;100.00;99617.53;5070445;28;20139;-82
2023/07/28 03:16:20;;;;;;;272.38;153.98;;;;;;;13.27;100.00;99619.59;5064242;28;20032;-84
2023/07/28 03:18:46;;;;;;;266.42;151.35;;;;;;;13.22;100.00;99599.69;5033700;28;20032;-82
2023/07/28 03:21:11;;;;;;;268.45;152.57;;;;;;;13.32;100.00;99617.06;5072232;28;20069;-82
2023/07/28 03:23:37;;;;;;;263.15;150.60;;;;;;;13.30;100.00;99612.94;5051549;28;20036;-84
2023/07/28 03:26:02;;;;;;;255.63;148.35;;;;;;;13.20;100.00;99586.41;5042915;28;20380;-82
2023/07/28 03:28:28;;;;;;;266.45;152.02;;;;;;;13.33;100.00;99610.59;5069421;28;20028;-82
2023/07/28 03:30:54;;;;;;;262.45;150.93;;;;;;;13.23;100.00;99598.63;5054995;28;20109;-83
2023/07/28 03:33:19;;;;;;;258.15;148.60;;;;;;;13.29;100.00;99606.72;5071454;28;20482;-81
2023/07/28 03:35:45;;;;;;;255.23;147.35;;;;;;;13.28;100.00;99604.22;5055496;28;20040;-83
2023/07/28 03:38:10;;;;;;;257.25;148.15;;;;;;;13.25;100.00;99597.34;5071164;28;20472;-83
2023/07/28 03:40:36;;;;;;;257.63;148.55;;;;;;;13.20;100.00;99595.34;5070399;28;20041;-82
2023/07/28 03:43:02;;;;;;;256.95;148.75;;;;;;;13.24;100.00;99593.03;5055148;28;20536;-83
2023/07/28 03:45:28;;;;;;;260.30;149.27;;;;;;;13.18;100.00;99583.13;5054359;28;20082;-82
2023/07/28 03:47:53;;;;;;;256.65;148.90;;;;;;;13.13;100.00;99586.47;5071576;28;20386;-82
2023/07/28 03:50:19;;;;;;;258.10;148.70;;;;;;;13.13;100.00;99580.25;5071368;28;20037;-82
2023/07/28 03:52:44;;;;;;;258.83;149.48;;;;;;;13.20;100.00;99603.44;5054435;28;20032;-84
2023/07/28 03:55:10;;;;;;;259.67;150.82;;;;;;;13.20;100.00;99597.19;5034307;28;20124;-83
2023/07/28 03:57:36;;;;;;;260.63;150.68;;;;;;;13.25;100.00;99593.84;5067934;28;20029;-83
2023/07/28 04:00:01;;;;;;;262.80;150.70;;;;;;;13.20;100.00;99587.25;5069952;28;20463;-83
2023/07/28 04:02:27;;;;;;;264.40;151.63;;;;;;;13.22;100.00;99592.41;5067831;28;20038;-84
2023/07/28 04:04:55;;;;;;;261.83;151.27;;;;;;;13.27;100.00;99599.88;5070754;28;20119;-83
2023/07/28 04:07:22;;;;;;;263.50;151.75;;;;;;;13.27;100.00;99597.19;5070121;28;20490;-81
2023/07/28 04:09:50;;;;;;;260.48;150.88;;;;;;;13.27;100.00;99603.41;5033016;28;20484;-83
2023/07/28 04:12:18;;;;;;;263.55;151.38;;;;;;;13.12;100.00;99579.41;5063586;28;20028;-84
2023/07/28 04:14:46;;;;;;;257.35;149.65;;;;;;;13.17;100.00;99593.06;5036403;28;20040;-82
2023/07/28 04:17:12;;;;;;;255.20;148.13;;;;;;;13.27;100.00;99602.59;5051618;28;20043;-83
2023/07/28 04:19:37;;;;;;;256.60;148.48;;;;;;;13.18;100.00;99591.22;5056003;28;20036;-81
2023/07/28 04:22:03;;;;;;;257.13;149.20;;;;;;;13.28;100.00;99607.75;5048580;28;20033;-82
2023/07/28 04:24:29;;;;;;;260.15;149.27;;;;;;;13.11;100.00;99575.06;5069284;28;20029;-83
2023/07/28 04:27:00;;;;;;;261.40;150.07;;;;;;;13.27;100.00;99602.59;5037132;28;20064;-83
2023/07/28 04:29:26;;;;;;;257.05;149.10;;;;;;;13.20;100.00;99587.25;5037520;28;20427;-81
2023/07/28 04:31:52;;;;;;;255.75;148.10;;;;;;;13.18;100.00;99578.53;5068878;28;20053;-82
2023/07/28 04:34:18;;;;;;;256.23;148.48;;;;;;;13.27;100.00;99589.91;5074658;28;20093;-82
2023/07/28 04:36:43;;;;;;;256.27;148.45;;;;;;;13.22;100.00;99580.78;5071557;28;20082;-84
2023/07/28 04:39:09;;;;;;;256.80;148.88;;;;;;;13.12;100.00;99579.41;5057713;28;20486;-83
2023/07/28 04:41:35;;;;;;;251.10;146.90;;;;;;;12.97;100.00;99584.34;5058024;28;20040;-81
2023/07/28 04:44:01;;;;;;;261.90;151.23;;;;;;;12.83;100.00;99590.88;5073639;28;20105;-83
2023/07/28 04:46:26;;;;;;;254.77;148.93;;;;;;;12.72;100.00;99590.53;5040944;28;20563;-82
2023/07/28 04:48:54;;;;;;;262.05;150.57;;;;;;;12.60;100.00;99581.50;5073592;28;20028;-81
2023/07/28 04:51:20;;;;;;;260.75;150.45;;;;;;;12.51;100.00;99564.72;5058041;28;20036;-82
2023/07/28 04:53:45;;;;;;;257.95;149.02;;;;;;;12.45;100.00;99556.69;5073935;28;20032;-82
2023/07/28 04:56:11;;;;;;;258.00;150.25;;;;;;;12.54;100.00;99576.94;5040739;28;20036;-84
2023/07/28 04:58:36;;;;;;;261.58;150.80;;;;;;;12.51;100.00;99572.81;5075309;28;20032;-82
2023/07/28 05:01:02;;;;;;;257.92;149.82;;;;;;;12.54;100.00;99579.66;5056591;28;20123;-83
2023/07/28 05:03:28;;;;;;;263.45;150.80;;;;;;;12.58;100.00;99580.88;5037997;28;20040;-81
2023/07/28 05:05:54;;;;;;;256.38;149.63;;;;;;;12.54;100.00;99571.56;5037159;28;20072;-81
2023/07/28 05:08:19;;;;;;;255.40;147.98;;;;;;;12.64;100.00;99582.69;5055903;28;20067;-82
2023/07/28 05:10:45;;;;;;;257.88;150.40;;;;;;;12.67;100.00;99582.25;5071330;28;20032;-83
2023/07/28 05:13:10;;;;;;;260.77;151.02;;;;;;;12.69;100.00;99585.56;5073152;28;20086;-82
2023/07/28 05:15:36;;;;;;;257.48;149.07;;;;;;;12.69;100.00;99582.06;5035862;28;20142;-84
2023/07/28 05:18:02;;;;;;;256.35;148.75;;;;;;;12.66;100.00;99580.63;5072683;28;20372;-83
2023/07/28 05:20:28;;;;;;;257.48;149.18;;;;;;;12.54;100.00;99569.72;5057142;28;20033;-81
2023/07/28 05:22:54;;;;;;;254.00;148.23;;;;;;;12.63;100.00;99575.66;5072500;28;20036;-84
2023/07/28 05:25:19;;;;;;;258.05;149.68;;;;;;;12.66;100.00;99579.78;5035679;28;20036;-83
2023/07/28 05:27:45;;;;;;;257.65;149.98;;;;;;;12.60;100.00;99576.09;5037887;28;20469;-82
2023/07/28 05:30:11;;;;;;;254.23;148.85;;;;;;;12.34;100.00;99563.63;5038853;28;20033;-81
2023/07/28 05:32:36;;;;;;;259.48;150.88;;;;;;;12.25;100.00;99579.22;5038890;28;20040;-82
2023/07/28 05:35:05;;;;;;;255.88;147.68;;;;;;;12.19;100.00;99580.06;5055046;28;20036;-81
2023/07/28 05:37:30;;;;;;;257.02;149.90;;;;;;;12.25;100.00;99565.75;5056085;28;20033;-82
2023/07/28 05:39:56;;;;;;;257.27;150.45;;;;;;;12.37;100.00;99556.97;5039067;28;20086;-82
2023/07/28 05:42:21;;;;;;;254.52;148.13;;;;;;;12.62;100.00;99568.63;5053722;28;20455;-83
2023/07/28 05:44:47;;;;;;;253.95;148.63;;;;;;;12.81;100.00;99565.97;5053229;28;20453;-82
2023/07/28 05:47:13;;;;;;;254.27;149.30;;;;;;;13.12;100.00;99574.00;5050671;28;20052;-85
2023/07/28 05:49:38;;;;;;;260.77;150.85;;;;;;;13.35;100.00;99567.19;5065911;28;20429;-84
2023/07/28 05:52:04;;;;;;;259.67;148.52;;;;;;;13.53;100.00;99571.81;5070708;28;20099;-82
2023/07/28 05:54:30;;;;;;;265.48;151.30;;;;;;;13.68;100.00;99566.00;5056256;28;20364;-82
2023/07/28 05:56:55;;;;;;;275.02;155.30;;;;;;;13.72;100.00;99568.03;5056240;28;20364;-83
2023/07/28 05:59:21;;;;;;;273.30;153.75;;;;;;;13.77;100.00;99570.06;5053558;28;20163;-83
2023/07/28 06:01:47;;;;;;;350.90;192.52;;;;;;;13.90;100.00;99569.09;5069386;28;20032;-83
2023/07/28 06:04:12;;;;;;;357.33;194.93;;;;;;;14.08;100.00;99560.97;5052460;28;20383;-82
2023/07/28 06:06:38;;;;;;;367.80;199.50;;;;;;;14.49;100.00;99568.28;5061270;28;20395;-82
2023/07/28 06:09:03;;;;;;;368.48;198.75;;;;;;;14.91;100.00;99562.88;5037361;28;20044;-82
2023/07/28 06:11:29;;;;;;;377.30;201.75;;;;;;;14.98;100.00;99556.50;5071974;28;20032;-83
2023/07/28 06:13:55;;;;;;;376.70;201.68;;;;;;;14.78;100.00;99537.91;5072353;28;20028;-82
2023/07/28 06:16:24;;;;;;;360.70;193.18;;;;;;;14.81;100.00;99548.28;5071829;28;20033;-82
2023/07/28 06:18:50;;;;;;;370.27;198.35;;;;;;;14.78;100.00;99554.97;5069566;28;20036;-82
2023/07/28 06:21:16;;;;;;;370.45;199.05;;;;;;;14.73;100.00;99547.53;5071853;28;20078;-84
2023/07/28 06:23:41;;;;;;;374.42;200.73;;;;;;;14.61;100.00;99532.38;5055024;28;20060;-82
2023/07/28 06:26:07;;;;;;;368.98;198.30;;;;;;;14.73;100.00;99546.72;5071262;28;20028;-83
2023/07/28 06:28:33;;;;;;;369.17;196.93;;;;;;;14.78;100.00;99541.44;5070124;28;20143;-83
2023/07/28 06:30:58;;;;;;;368.02;197.40;;;;;;;14.86;100.00;99535.69;5056116;28;20024;-82
2023/07/28 06:33:24;;;;;;;371.73;197.43;;;;;;;14.97;100.00;99533.22;5070747;28;20043;-84
2023/07/28 06:35:53;;;;;;;364.02;194.75;;;;;;;15.07;100.00;99545.13;5070685;28;20543;-83
2023/07/28 06:38:19;;;;;;;371.75;198.05;;;;;;;15.08;100.00;99545.94;5052887;28;20020;-82
2023/07/28 06:40:44;;;;;;;367.02;196.07;;;;;;;15.13;100.00;99546.06;5036693;28;20119;-83
2023/07/28 06:43:10;;;;;;;370.70;197.40;;;;;;;15.14;100.00;99553.97;5052913;28;20029;-83
2023/07/28 06:45:36;;;;;;;365.65;193.73;;;;;;;15.10;100.00;99541.13;5054301;28;20035;-85
2023/07/28 06:48:02;;;;;;;364.27;193.00;;;;;;;15.17;100.00;99536.41;5055028;28;20485;-85
2023/07/28 06:50:30;;;;;;;370.17;196.10;;;;;;;15.44;100.00;99547.56;5070572;28;20028;-83
2023/07/28 06:52:55;;;;;;;301.15;162.35;;;;;;;16.16;100.00;99541.75;5052115;28;20119;-83
2023/07/28 06:55:23;;;;;;;362.88;191.18;;;;;;;16.20;100.00;99537.50;5037446;28;20111;-83
2023/07/28 06:57:49;;;;;;;369.65;194.80;;;;;;;16.12;100.00;99528.94;5068379;28;20025;-83
2023/07/28 07:00:18;;;;;;;351.60;185.65;;;;;;;16.15;100.00;99534.69;5045510;28;20043;-85
2023/07/28 07:02:45;;;;;;;374.77;195.60;;;;;;;16.08;100.00;99536.72;5065781;28;20042;-84
2023/07/28 07:05:11;;;;;;;367.60;192.07;;;;;;;15.94;100.00;99502.84;5034757;28;20048;-85
2023/07/28 07:07:39;;;;;;;371.52;194.45;;;;;;;16.00;99.98;99518.13;5043166;28;20051;-85
2023/07/28 07:10:06;;;;;;;367.08;192.38;;;;;;;16.00;100.00;99535.22;5069253;28;20060;-85
2023/07/28 07:12:33;;;;;;;368.83;193.18;;;;;;;16.06;98.95;99528.00;5037810;28;20032;-85
2023/07/28 07:14:59;;;;;;;286.45;154.98;;;;;;;18.59;87.83;99543.06;5070971;28;20033;-86
2023/07/28 07:17:24;;;;;;;384.60;195.57;;;;;;;19.60;78.67;99535.91;5034779;28;20052;-87
2023/07/28 07:19:50;;;;;;;345.40;178.93;;;;;;;18.74;78.98;99540.47;5067460;28;20032;-86
2023/07/28 07:22:19;;;;;;;372.05;190.75;;;;;;;17.81;82.91;99546.06;5053052;28;20043;-86
2023/07/28 07:24:44;;;;;;;381.85;194.05;;;;;;;17.23;86.20;99548.22;5069696;28;20068;-86
2023/07/28 07:27:10;;;;;;;376.13;192.52;;;;;;;16.93;88.52;99551.28;5034704;28;20037;-86
2023/07/28 07:29:38;;;;;;;376.80;192.00;;;;;;;17.05;88.49;99548.47;5053891;28;21985;-86
2023/07/28 07:32:05;;;;;;;370.92;190.52;;;;;;;17.08;89.01;99551.50;5037773;28;20063;-86
2023/07/28 07:34:33;;;;;;;376.67;194.15;;;;;;;16.69;90.11;99542.44;5054308;28;20029;-84
2023/07/28 07:37:32;;;;;;;376.92;193.35;;;;;;;16.31;93.61;99556.69;5054706;28;20044;-86
2023/07/28 07:39:58;;;;;;;379.58;194.70;;;;;;;15.98;96.33;99558.22;5034862;28;20036;-85
2023/07/28 07:42:23;;;;;;;368.10;190.13;;;;;;;15.68;99.95;99569.22;5021320;28;20377;-86
2023/07/28 07:44:52;;;;;;;378.33;195.18;;;;;;;15.59;100.00;99560.66;5052412;28;20094;-84
2023/07/28 07:47:18;;;;;;;371.55;193.93;;;;;;;15.89;100.00;99574.03;5033226;28;20033;-85
2023/07/28 07:49:43;;;;;;;356.42;185.35;;;;;;;16.82;100.00;99563.84;5037749;28;20029;-86
2023/07/28 07:52:09;;;;;;;371.75;191.55;;;;;;;18.24;94.79;99560.69;5035986;28;20033;-86
2023/07/28 07:54:35;;;;;;;379.15;194.15;;;;;;;18.38;91.49;99564.63;5077722;28;20024;-86
2023/07/28 07:57:02;;;;;;;377.90;193.18;;;;;;;18.37;88.79;99556.75;5037407;28;20078;-86
2023/07/28 07:59:30;;;;;;;364.88;187.13;;;;;;;18.36;87.30;99565.97;5040567;28;20155;-86
2023/07/28 08:01:56;;;;;;;363.25;184.77;;;;;;;18.93;84.79;99559.19;5052972;28;20095;-86
2023/07/28 08:04:21;;;;;;;374.08;189.93;;;;;;;19.04;83.77;99555.47;5039753;28;20032;-85
2023/07/28 08:06:47;;;;;;;367.20;185.82;;;;;;;18.72;84.22;99547.28;5054787;28;20048;-84
2023/07/28 08:09:13;;;;;;;364.17;185.23;;;;;;;18.28;85.04;99544.66;5074628;28;20029;-85
2023/07/28 08:11:39;;;;;;;356.85;182.05;;;;;;;18.19;86.57;99544.31;5073926;28;20064;-85
2023/07/28 08:14:05;;;;;;;362.63;183.70;;;;;;;18.02;86.67;99539.78;5073927;28;20052;-84
2023/07/28 08:16:37;;;;;;;366.02;186.80;;;;;;;17.85;88.62;99554.50;5037853;28;20086;-85
2023/07/28 08:19:02;;;;;;;368.52;186.73;;;;;;;17.62;89.17;99550.91;5055999;28;20123;-84
2023/07/28 08:21:28;;;;;;;361.08;184.07;;;;;;;17.57;89.30;99546.25;5042172;28;20493;-83
2023/07/28 08:23:54;;;;;;;350.65;180.25;;;;;;;17.86;90.13;99537.97;5058748;28;20384;-83
2023/07/28 08:26:19;;;;;;;351.33;178.90;;;;;;;18.18;88.40;99550.84;5041784;28;20035;-83
2023/07/28 08:28:45;;;;;;;337.60;174.27;;;;;;;18.43;88.02;99555.72;5075536;28;20043;-83
2023/07/28 08:31:11;;;;;;;337.05;173.68;;;;;;;18.85;84.96;99541.41;5058593;28;20371;-83
2023/07/28 08:33:39;;;;;;;366.77;186.13;;;;;;;18.28;88.10;99545.47;5075298;28;20028;-83
2023/07/28 08:36:05;;;;;;;362.10;184.25;;;;;;;17.72;91.25;99545.63;5042103;28;20455;-83
2023/07/28 08:38:31;;;;;;;361.70;183.93;;;;;;;17.21;94.35;99541.41;5075197;28;20029;-83
2023/07/28 08:40:58;;;;;;;363.50;184.40;;;;;;;17.03;96.74;99559.59;5075250;28;20547;-83
2023/07/28 08:43:24;;;;;;;337.90;175.35;;;;;;;16.21;100.00;99535.63;5058698;28;20032;-84
2023/07/28 08:45:54;;;;;;;324.75;170.40;;;;;;;15.42;100.00;99568.66;5054680;28;20086;-80
2023/07/28 08:48:20;;;;;;;322.15;168.75;;;;;;;15.16;100.00;99567.25;5038637;28;20589;-80
2023/07/28 08:50:46;;;;;;;321.45;169.02;;;;;;;15.12;100.00;99564.19;5038413;28;20037;-80
2023/07/28 08:53:12;;;;;;;330.70;174.30;;;;;;;15.10;100.00;99565.47;5056189;28;20123;-80
2023/07/28 08:55:37;;;;;;;350.83;183.77;;;;;;;15.44;100.00;99571.13;5074705;28;20114;-81
2023/07/28 08:58:17;;;;;;;348.08;182.93;;;;;;;15.32;100.00;99554.88;5054276;28;20455;-80
2023/07/28 09:00:44;;;;;;;352.80;185.93;;;;;;;15.49;100.00;99568.53;5041048;28;20044;-81
2023/07/28 09:03:09;;;;;;;348.75;183.30;;;;;;;16.13;100.00;99544.16;5052429;28;20025;-82
2023/07/28 09:05:35;;;;;;;348.67;183.75;;;;;;;16.65;100.00;99547.53;5036126;28;20533;-83
2023/07/28 09:08:00;;;;;;;356.38;186.57;;;;;;;16.75;100.00;99540.63;5057427;28;20108;-83
2023/07/28 09:10:40;;;;;;;335.60;175.52;;;;;;;17.66;100.00;99524.06;5057614;28;20032;-83
2023/07/28 09:13:09;;;;;;;346.90;180.38;;;;;;;19.08;100.00;99521.16;5057732;28;20025;-84
2023/07/28 09:15:35;;;;;;;364.27;186.82;;;;;;;19.50;100.00;99532.06;5074390;28;20398;-84
2023/07/28 09:18:01;;;;;;;361.35;185.48;;;;;;;19.22;100.00;99535.16;5063695;28;20020;-87
2023/07/28 09:20:36;;;;;;;368.58;187.88;;;;;;;18.68;100.00;99538.78;5064376;28;20438;-86
2023/07/28 09:23:03;;;;;;;357.58;183.02;;;;;;;18.50;100.00;99528.25;5042982;28;20040;-85
2023/07/28 09:25:29;;;;;;;300.15;159.40;;;;;;;18.76;100.00;99537.50;5038969;28;20538;-86
2023/07/28 09:27:55;;;;;;;347.55;177.55;;;;;;;19.07;100.00;99519.50;5067530;28;20086;-87
2023/07/28 09:30:22;;;;;;;279.05;150.65;;;;;;;19.01;100.00;99526.00;5074364;28;20040;-86
2023/07/28 09:32:49;;;;;;;316.30;164.20;;;;;;;18.97;100.00;99527.59;5032920;28;20098;-87
2023/07/28 09:35:16;;;;;;;363.48;184.05;;;;;;;19.17;100.00;99511.41;5071790;28;20055;-87
2023/07/28 09:37:45;;;;;;;370.92;186.13;;;;;;;19.48;100.00;99520.59;5056977;28;20123;-86
2023/07/28 09:40:12;;;;;;;372.90;186.75;;;;;;;19.76;100.00;99499.47;5054126;28;20044;-88
2023/07/28 09:42:39;;;;;;;365.45;183.35;;;;;;;20.30;100.00;99531.00;5038424;28;20157;-88
2023/07/28 09:45:06;;;;;;;369.42;184.30;;;;;;;20.05;100.00;99488.09;5053474;28;20050;-88
2023/07/28 09:47:35;;;;;;;360.35;180.73;;;;;;;19.74;100.00;99504.34;5054598;28;20036;-88
2023/07/28 09:50:06;;;;;;;311.35;161.65;;;;;;;20.10;100.00;99491.66;5055548;28;20054;-87
2023/07/28 09:52:38;;;;;;;348.02;174.75;;;;;;;20.82;100.00;99516.31;5056649;28;20024;-84
2023/07/28 09:55:08;;;;;;;379.25;187.95;;;;;;;21.67;98.51;99530.16;5070113;28;20028;-85
2023/07/28 09:57:51;;;;;;;369.80;181.98;;;;;;;21.48;97.31;99532.63;5038052;28;20395;-84
2023/07/28 10:00:17;;;;;;;;;;;;;;;21.34;95.82;99528.84;5072964;28;20467;-83
2023/07/28 10:02:44;;;;;;;370.13;183.88;;;;;;;20.77;95.89;99521.78;5055647;28;19923;-85
2023/07/28 10:05:10;;;;;;;363.90;180.95;;;;;;;20.40;97.39;99528.28;5040968;28;20035;-84
2023/07/28 10:07:38;;;;;;;356.00;177.95;;;;;;;21.19;92.81;99523.38;5056111;28;20113;-85
2023/07/28 10:10:09;;;;;;;379.80;187.25;;;;;;;22.06;89.82;99507.50;5056507;28;20387;-86
2023/07/28 10:12:55;;;;;;;367.60;182.13;;;;;;;22.23;88.46;99523.59;5048024;28;20032;-85
2023/07/28 10:15:21;;;;;;;380.83;188.15;;;;;;;21.84;89.52;99504.34;5051727;28;20483;-86
2023/07/28 10:17:58;;;;;;;334.98;170.02;;;;;;;24.36;83.29;99521.69;5067502;28;20048;-84
2023/07/28 10:20:42;;;;;;;384.88;188.15;;;;;;;25.46;76.67;99506.69;5055289;28;20037;-87
2023/07/28 10:23:12;;;;;;;390.83;190.05;;;;;;;24.87;76.03;99502.78;5037927;28;20028;-84
2023/07/28 10:25:38;;;;;;;383.85;187.20;;;;;;;23.06;80.88;99510.94;5053405;28;20068;-84
2023/07/28 10:28:05;;;;;;;379.17;185.77;;;;;;;21.71;87.43;99513.97;5056603;28;20434;-84
2023/07/28 10:30:38;;;;;;;375.02;183.68;;;;;;;20.77;91.87;99510.84;5038964;28;20030;-85
2023/07/28 10:33:04;;;;;;;;;;;;;;;20.36;96.04;99510.81;5028871;28;20047;-85
2023/07/28 10:35:32;;;;;;;353.38;174.98;;;;;;;20.09;96.93;99506.41;5043598;28;19956;-86
2023/07/28 10:37:58;;;;;;;287.90;152.43;;;;;;;19.97;100.00;99506.63;5048564;28;20098;-85
2023/07/28 10:40:26;;;;;;;376.25;184.15;;;;;;;19.74;100.00;99505.19;5070267;28;20410;-86
2023/07/28 10:42:52;;;;;;;362.42;179.85;;;;;;;19.28;100.00;99485.84;5036759;28;20040;-86
2023/07/28 10:45:18;;;;;;;373.25;184.30;;;;;;;19.10;99.34;99489.84;5054576;28;20040;-85
2023/07/28 10:47:45;;;;;;;354.40;176.52;;;;;;;19.13;98.98;99509.47;5054863;28;20079;-84
2023/07/28 10:50:12;;;;;;;364.65;181.43;;;;;;;19.10;99.28;99506.22;5070621;28;20029;-84
2023/07/28 10:52:41;;;;;;;365.73;182.45;;;;;;;19.33;99.05;99507.69;5036912;28;20117;-83
2023/07/28 10:55:21;;;;;;;357.95;179.48;;;;;;;19.54;97.99;99497.72;5040864;28;20391;-82